Time;durP1;ratioP1;P1;durP2;ratioP2;P2;SDS_P1;SDS_P2;PMS_P1;PMS_P2;Temp;Humidity;BMP_temperature;BMP_pressure;BME280_temperature;BME280_humidity;BME280_pressure;Samples;Min_cycle;Max_cycle;Signal;HPM_P1;HPM_P2
2022/08/18 00:05:42;;;;;;;5.93;1.67;;;14.50;99.90;;;;;;20466631;29;20444;-52
2022/08/18 00:15:45;;;;;;;3.67;1.60;;;14.40;99.90;;;;;;20481625;28;20051;-62
2022/08/18 00:25:48;;;;;;;4.00;1.50;;;14.50;99.90;;;;;;20481092;29;20556;-47
2022/08/18 00:35:51;;;;;;;4.30;1.70;;;14.60;99.90;;;;;;20480870;29;20043;-51
2022/08/18 00:45:54;;;;;;;4.00;1.60;;;14.70;99.90;;;;;;20480725;29;20036;-48
2022/08/18 00:56:05;;;;;;;6.50;1.83;;;14.70;99.90;;;;;;20488564;28;20043;-49
2022/08/18 01:06:20;;;;;;;3.67;1.73;;;14.60;99.90;;;;;;20510112;29;20099;-62
2022/08/18 01:26:48;;;;;;;4.40;1.60;;;14.60;99.90;;;;;;20492057;29;20567;-50
2022/08/18 01:36:52;;;;;;;3.22;1.33;;;14.50;99.90;;;;;;20491012;29;20035;-51
2022/08/18 01:46:55;;;;;;;2.42;1.13;;;14.50;99.90;;;;;;20490443;29;20090;-62
2022/08/18 01:56:58;;;;;;;3.20;1.30;;;14.70;99.90;;;;;;20441349;29;20094;-48
2022/08/18 02:07:04;;;;;;;4.90;1.60;;;14.70;99.90;;;;;;20488781;28;20039;-52
2022/08/18 02:17:09;;;;;;;3.08;1.48;;;14.80;99.90;;;;;;20503646;29;20079;-50
2022/08/18 02:27:14;;;;;;;5.10;1.30;;;15.00;99.90;;;;;;20503390;29;20448;-49
2022/08/18 02:37:17;;;;;;;2.97;1.33;;;15.30;99.90;;;;;;20503452;29;20078;-47
2022/08/18 02:47:20;;;;;;;5.03;1.45;;;15.50;99.90;;;;;;20486698;29;20086;-63
2022/08/18 02:57:23;;;;;;;2.80;1.88;;;15.90;99.90;;;;;;20490618;29;20043;-60
2022/08/18 03:07:25;;;;;;;18.35;6.10;;;15.70;99.90;;;;;;20484444;28;20043;-62
2022/08/18 03:17:28;;;;;;;8.65;5.32;;;15.60;99.90;;;;;;20484191;28;20082;-55
2022/08/18 03:27:31;;;;;;;15.10;9.95;;;15.50;99.90;;;;;;20483775;29;20031;-60
2022/08/18 03:37:34;;;;;;;14.35;8.98;;;14.60;99.90;;;;;;20483085;29;20464;-58
2022/08/18 03:47:37;;;;;;;16.48;6.90;;;14.40;99.90;;;;;;20498945;29;20402;-59
2022/08/18 03:57:39;;;;;;;11.02;5.18;;;14.60;99.90;;;;;;20482254;29;20436;-58
2022/08/18 04:07:42;;;;;;;7.53;2.80;;;14.70;99.90;;;;;;20482005;29;20043;-60
2022/08/18 04:17:45;;;;;;;3.38;0.95;;;14.60;99.90;;;;;;20481381;29;20055;-61
2022/08/18 04:27:48;;;;;;;3.78;0.93;;;14.40;99.90;;;;;;20484292;28;20035;-55
2022/08/18 04:37:51;;;;;;;5.32;1.00;;;14.00;99.90;;;;;;20496467;29;20175;-61
2022/08/18 04:47:54;;;;;;;5.38;1.15;;;13.80;99.90;;;;;;20511800;29;20039;-54
2022/08/18 04:57:58;;;;;;;4.40;1.00;;;13.60;99.90;;;;;;20511026;29;20501;-62
2022/08/18 05:08:01;;;;;;;3.38;0.73;;;13.50;99.90;;;;;;20494196;29;20570;-51
2022/08/18 05:18:04;;;;;;;4.07;1.23;;;13.60;99.90;;;;;;20493344;29;20059;-53
2022/08/18 05:28:08;;;;;;;4.47;1.40;;;13.80;99.90;;;;;;20508478;29;20106;-53
2022/08/18 05:38:29;;;;;;;3.30;1.05;;;14.00;99.90;;;;;;20492016;28;20408;-50
2022/08/18 05:48:34;;;;;;;5.10;1.30;;;14.30;99.90;;;;;;20491255;29;20039;-63
2022/08/18 05:58:45;;;;;;;3.22;0.95;;;14.80;99.90;;;;;;20506397;29;20066;-52
2022/08/18 06:09:16;;;;;;;2.17;0.68;;;15.50;99.90;;;;;;20505597;29;20027;-53
2022/08/18 06:19:42;;;;;;;3.63;0.68;;;16.50;99.90;;;;;;20484930;29;20047;-50
2022/08/18 06:30:33;;;;;;;2.40;1.00;;;16.40;99.90;;;;;;20500201;29;20098;-53
2022/08/18 06:40:35;;;;;;;5.38;1.00;;;16.30;99.90;;;;;;20243447;28;20470;-59
2022/08/18 06:50:51;;;;;;;4.18;1.13;;;16.10;99.90;;;;;;20272062;28;20080;-61
2022/08/18 07:00:59;;;;;;;4.20;1.00;;;16.40;99.90;;;;;;20302205;29;20195;-53
2022/08/18 07:11:23;;;;;;;3.63;0.90;;;16.80;99.90;;;;;;20282232;29;20048;-55
2022/08/18 07:21:30;;;;;;;5.50;1.40;;;16.40;99.90;;;;;;20469937;28;20110;-57
2022/08/18 07:32:15;;;;;;;19.83;4.10;;;15.90;99.90;;;;;;20430124;28;20043;-59
2022/08/18 07:42:37;;;;;;;8.00;3.73;;;15.30;99.90;;;;;;20435418;28;20099;-59
2022/08/18 07:53:11;;;;;;;1.95;0.20;;;14.50;99.90;;;;;;20447226;29;20299;-61
2022/08/18 08:03:49;;;;;;;1.60;0.32;;;14.10;99.90;;;;;;20499552;28;20094;-60
2022/08/18 08:14:19;;;;;;;2.33;0.43;;;14.10;99.90;;;;;;20514028;28;20095;-59
2022/08/18 08:24:41;;;;;;;1.85;0.70;;;13.80;99.90;;;;;;20513613;29;20102;-59
2022/08/18 08:35:15;;;;;;;2.67;1.13;;;14.20;99.90;;;;;;20512385;29;20082;-59
2022/08/18 08:45:30;;;;;;;4.53;1.50;;;14.30;99.90;;;;;;20266860;29;20045;-59
2022/08/18 08:55:43;;;;;;;5.97;2.13;;;14.70;99.90;;;;;;20304000;28;20044;-60
2022/08/18 09:06:03;;;;;;;4.05;2.03;;;15.10;99.90;;;;;;20267999;29;20128;-61
2022/08/18 09:16:34;;;;;;;6.05;2.00;;;15.10;99.90;;;;;;20288286;29;20059;-62
2022/08/18 09:26:41;;;;;;;;;;;15.20;99.90;;;;;;20493146;29;20082;-64
2022/08/18 09:36:44;;;;;;;1.85;1.00;;;15.80;99.90;;;;;;20477541;29;20365;-50
2022/08/18 09:46:47;;;;;;;3.35;0.80;;;16.30;99.90;;;;;;20507056;29;20417;-51
2022/08/18 09:56:50;;;;;;;3.58;1.13;;;16.40;99.90;;;;;;20506423;29;20059;-49
2022/08/18 10:06:53;;;;;;;2.05;0.82;;;15.80;99.90;;;;;;20474197;29;20042;-59
2022/08/18 10:17:17;;;;;;;6.15;1.60;;;15.00;99.90;;;;;;20394293;29;20051;-59
2022/08/18 10:27:51;;;;;;;5.85;1.75;;;14.50;99.90;;;;;;20474816;28;20035;-60
2022/08/18 10:37:54;;;;;;;6.90;1.38;;;14.10;99.90;;;;;;20468377;28;20034;-59
2022/08/18 10:48:28;;;;;;;6.43;2.13;;;13.70;99.90;;;;;;20431222;28;20075;-60
2022/08/18 10:58:39;;;;;;;14.93;2.72;;;13.60;99.90;;;;;;20265186;29;20049;-61
2022/08/18 11:09:00;;;;;;;2.38;0.68;;;13.50;99.90;;;;;;20240873;29;20141;-62
2022/08/18 11:19:10;;;;;;;3.75;1.10;;;13.40;99.90;;;;;;20239935;29;20052;-60
2022/08/18 11:29:29;;;;;;;2.40;0.80;;;13.70;99.90;;;;;;20317051;29;20055;-60
2022/08/18 11:39:35;;;;;;;3.20;0.77;;;14.20;99.90;;;;;;20317461;29;20104;-60
2022/08/18 11:49:50;;;;;;;1.73;0.93;;;14.50;99.90;;;;;;20367942;29;20051;-60
2022/08/18 11:59:54;;;;;;;0.98;0.57;;;14.80;99.90;;;;;;20498447;28;20090;-59
2022/08/18 12:10:20;;;;;;;0.50;0.50;;;15.30;99.90;;;;;;20481058;29;20448;-60
2022/08/18 12:20:23;;;;;;;1.10;0.40;;;15.60;99.90;;;;;;20496188;29;20113;-59
2022/08/18 12:30:25;;;;;;;1.23;0.68;;;15.80;99.90;;;;;;20480645;29;20098;-59
2022/08/18 12:40:30;;;;;;;1.20;0.43;;;15.90;99.90;;;;;;20416746;29;20078;-59
2022/08/18 12:50:35;;;;;;;0.93;0.50;;;15.50;99.90;;;;;;20485936;28;20031;-59
2022/08/18 13:00:39;;;;;;;1.67;0.55;;;15.20;99.90;;;;;;20510686;28;20055;-58
2022/08/18 13:10:42;;;;;;;2.45;0.80;;;15.50;99.90;;;;;;20477432;29;20078;-61
2022/08/18 13:20:45;;;;;;;1.83;1.00;;;16.40;99.90;;;;;;20492404;29;20460;-56
2022/08/18 13:30:48;;;;;;;5.20;1.30;;;16.20;99.90;;;;;;20493667;29;20035;-62
2022/08/18 13:40:52;;;;;;;3.83;1.88;;;16.00;99.90;;;;;;20490988;29;20039;-55
2022/08/18 13:50:57;;;;;;;3.33;2.20;;;15.80;99.90;;;;;;20506103;29;20452;-54
2022/08/18 14:01:10;;;;;;;3.90;1.60;;;15.80;99.90;;;;;;20473954;28;20102;-64
2022/08/18 14:11:13;;;;;;;2.33;1.70;;;16.70;99.90;;;;;;20505082;29;20497;-70
2022/08/18 14:31:37;;;;;;;2.33;1.33;;;19.70;99.90;;;;;;20488578;29;20408;-70
2022/08/18 14:41:40;;;;;;;2.28;0.82;;;21.00;99.90;;;;;;20487977;29;20070;-67
2022/08/18 14:51:43;;;;;;;2.67;0.98;;;21.50;99.90;;;;;;20486948;29;20043;-53
2022/08/18 15:01:45;;;;;;;1.90;0.80;;;21.90;99.90;;;;;;20501266;29;20560;-56
2022/08/18 15:11:49;;;;;;;2.55;0.70;;;22.70;99.90;;;;;;20500265;28;20066;-54
2022/08/18 15:32:14;;;;;;;1.58;0.88;;;22.30;99.90;;;;;;20479682;28;20090;-52
2022/08/18 15:42:16;;;;;;;2.63;1.20;;;22.00;99.90;;;;;;20479408;29;20434;-65
2022/08/18 15:52:19;;;;;;;3.13;1.35;;;22.20;99.90;;;;;;20472737;28;20043;-54
2022/08/18 16:02:23;;;;;;;3.88;2.80;;;21.40;99.90;;;;;;20469597;29;20047;-54
2022/08/18 16:12:26;;;;;;;4.18;2.58;;;19.90;99.90;;;;;;20413699;29;20048;-64
2022/08/18 16:22:30;;;;;;;5.90;2.95;;;18.80;99.90;;;;;;20452032;28;20063;-62
2022/08/18 16:32:33;;;;;;;6.38;3.33;;;18.50;99.90;;;;;;20500988;29;20051;-53
2022/08/18 16:42:36;;;;;;;1.13;0.73;;;17.20;99.90;;;;;;20479876;29;20043;-63
2022/08/18 16:52:39;;;;;;;2.50;0.60;;;16.10;99.90;;;;;;20485911;28;20027;-52
2022/08/18 17:13:06;;;;;;;1.80;0.55;;;15.10;99.90;;;;;;20487789;28;20055;-50
2022/08/18 17:23:09;;;;;;;1.25;0.45;;;14.70;99.90;;;;;;20506254;29;20154;-51
2022/08/18 17:33:32;;;;;;;3.33;0.70;;;14.40;99.90;;;;;;20485215;28;20035;-52
2022/08/18 17:43:39;;;;;;;1.77;0.40;;;14.40;99.90;;;;;;20473762;29;20094;-53
2022/08/18 17:53:42;;;;;;;1.75;0.40;;;14.60;99.90;;;;;;20505414;29;20086;-62
2022/08/18 18:03:46;;;;;;;1.40;0.55;;;14.70;99.90;;;;;;20488627;29;20429;-62
2022/08/18 18:13:48;;;;;;;1.30;0.47;;;14.60;99.90;;;;;;20488163;28;20055;-62
2022/08/18 18:24:09;;;;;;;1.50;0.52;;;14.60;99.90;;;;;;20486698;29;20039;-62
2022/08/18 18:34:25;;;;;;;1.55;0.50;;;14.60;99.90;;;;;;20470146;29;20338;-49
2022/08/18 18:44:30;;;;;;;2.80;0.35;;;14.60;99.90;;;;;;20472289;28;20040;-61
2022/08/18 18:54:50;;;;;;;1.85;0.65;;;14.70;99.90;;;;;;20469369;29;20559;-49
2022/08/18 19:05:28;;;;;;;1.88;0.90;;;14.60;99.90;;;;;;20480122;29;20031;-62
2022/08/18 19:15:34;;;;;;;2.67;0.50;;;14.90;99.90;;;;;;20477717;28;20043;-49
2022/08/18 19:25:47;;;;;;;1.67;0.80;;;15.00;99.90;;;;;;20494999;28;20031;-52
2022/08/18 19:36:02;;;;;;;1.30;0.90;;;15.20;99.90;;;;;;20474497;29;20105;-49
2022/08/18 19:46:20;;;;;;;1.83;0.90;;;15.20;99.90;;;;;;20479374;28;20031;-62
2022/08/18 19:56:36;;;;;;;2.17;0.50;;;15.10;99.90;;;;;;20423065;28;20102;-61
2022/08/18 20:06:57;;;;;;;1.45;0.80;;;15.00;99.90;;;;;;20482442;29;20039;-52
2022/08/18 20:17:21;;;;;;;3.15;0.63;;;15.10;99.90;;;;;;20495167;29;20075;-50
2022/08/18 20:27:40;;;;;;;2.63;0.50;;;15.10;99.90;;;;;;20481600;29;20047;-61
2022/08/18 20:37:43;;;;;;;0.40;0.20;;;14.80;99.90;;;;;;20497577;29;20078;-61
2022/08/18 20:48:09;;;;;;;3.67;0.20;;;14.70;99.90;;;;;;20487704;29;20039;-51
2022/08/18 20:58:17;;;;;;;0.93;0.30;;;14.90;99.90;;;;;;20495073;29;20039;-47
2022/08/18 21:08:32;;;;;;;2.03;0.30;;;14.80;99.90;;;;;;20483110;28;20448;-53
2022/08/18 21:18:35;;;;;;;0.38;0.20;;;14.90;99.90;;;;;;20494781;29;20051;-62
2022/08/18 21:28:43;;;;;;;3.28;0.52;;;15.00;99.90;;;;;;20491896;29;20106;-51
2022/08/18 21:38:51;;;;;;;1.15;0.30;;;15.30;99.90;;;;;;20491840;29;20068;-51
2022/08/18 21:48:57;;;;;;;2.08;0.50;;;15.50;99.90;;;;;;20491064;29;20512;-62
2022/08/18 21:59:08;;;;;;;1.00;0.40;;;15.40;99.90;;;;;;20505612;29;20039;-62
2022/08/18 22:19:33;;;;;;;2.05;0.50;;;14.60;99.90;;;;;;20488147;28;20044;-52
2022/08/18 22:30:02;;;;;;;2.10;0.45;;;14.40;99.90;;;;;;20455699;29;20557;-53
2022/08/18 22:40:11;;;;;;;1.95;0.30;;;14.20;99.90;;;;;;20504193;29;20043;-56
2022/08/18 22:50:13;;;;;;;2.30;0.82;;;14.10;99.90;;;;;;20503569;29;20039;-59
2022/08/18 23:00:20;;;;;;;2.38;0.80;;;14.00;99.90;;;;;;20484856;29;20031;-62
2022/08/18 23:10:23;;;;;;;2.53;0.90;;;14.00;99.90;;;;;;20516759;28;20039;-56
2022/08/18 23:20:26;;;;;;;1.75;0.55;;;14.00;99.90;;;;;;20484128;29;20504;-62
2022/08/18 23:30:29;;;;;;;3.92;0.52;;;14.00;99.90;;;;;;20483232;29;20102;-52
2022/08/18 23:40:32;;;;;;;2.70;0.47;;;14.40;99.90;;;;;;20482421;29;20067;-62
2022/08/18 23:50:41;;;;;;;3.10;0.60;;;14.20;99.90;;;;;;20403980;29;20036;-51
